Maple Valley, Washington
Current Conditions -  °F | °C
As of 4:53 PM on Friday 19 Dec 2014 (Local Time) from KRNT Reporting Station
Overcast Overcast  
Wind Chill: 50°   Ceiling: 7500
Heat Index: 50°   Visibility: 10mi
Dew Point: 40°   Wind: 3mph
Humidity: 68%   Direction: 110°ESE
Pressure: 29.95"   Gusts: NA
Location:  47.41°N, 122.04°W
Report Text: KRNT 200053Z 11003KT 10SM SCT050 OVC075 10/04 A2995 RMK AO2 SLP145 T01000044
Loading
Personal Weather Stations






























Interactive Weather Map New forecast layout! Learn more

10-Day Weather Forecast

Advertisements
Track Severe Weather on mobile